Time;durP1;ratioP1;P1;durP2;ratioP2;P2;SDS_P1;SDS_P2;PMS_P1;PMS_P2;Temp;Humidity;BMP_temperature;BMP_pressure;BME280_temperature;BME280_humidity;BME280_pressure;Samples;Min_cycle;Max_cycle;Signal;HPM_P1;HPM_P2
2024/03/19 00:00:24;;;;;;;16.83;15.50;;;0.20;1.00;;;;;;4803246;29;20202;-37
2024/03/19 00:02:49;;;;;;;17.13;15.43;;;0.20;1.00;;;;;;4802959;29;20291;-37
2024/03/19 00:05:15;;;;;;;15.33;14.13;;;0.10;1.00;;;;;;4811635;29;21091;-38
2024/03/19 00:07:40;;;;;;;16.77;15.13;;;0.10;1.00;;;;;;4806234;29;20204;-37
2024/03/19 00:10:06;;;;;;;16.67;15.07;;;0.10;59.20;;;;;;4799555;29;20236;-37
2024/03/19 00:12:32;;;;;;;15.93;14.73;;;0.00;99.90;;;;;;4804543;29;20190;-38
2024/03/19 00:14:59;;;;;;;17.30;15.63;;;0.00;99.90;;;;;;4769063;29;1098309;-38
2024/03/19 00:17:26;;;;;;;16.77;15.32;;;0.10;99.90;;;;;;4805014;29;20213;-38
2024/03/19 00:19:52;;;;;;;15.43;14.13;;;0.00;99.90;;;;;;4801311;29;20669;-38
2024/03/19 00:22:18;;;;;;;16.65;15.25;;;-0.10;99.90;;;;;;4807743;29;20217;-38
2024/03/19 00:24:44;;;;;;;14.73;13.47;;;0.00;99.90;;;;;;4802430;29;20238;-47
2024/03/19 00:27:09;;;;;;;17.33;15.63;;;-0.10;99.90;;;;;;4804338;29;20616;-50
2024/03/19 00:29:35;;;;;;;17.33;15.83;;;-0.10;99.90;;;;;;4803315;29;20224;-52
2024/03/19 00:32:01;;;;;;;16.53;15.10;;;-0.10;99.90;;;;;;4812331;29;20193;-49
2024/03/19 00:34:27;;;;;;;18.27;16.60;;;-0.10;99.90;;;;;;4812679;29;20279;-50
2024/03/19 00:36:52;;;;;;;16.55;15.05;;;-0.20;99.90;;;;;;4799969;29;20189;-48
2024/03/19 00:39:21;;;;;;;16.87;15.47;;;-0.20;99.90;;;;;;4805001;29;20276;-39
2024/03/19 00:41:48;;;;;;;16.75;15.35;;;-0.20;99.90;;;;;;4783924;29;20209;-36
2024/03/19 00:44:14;;;;;;;18.23;16.45;;;-0.30;99.90;;;;;;4800282;29;20519;-48
2024/03/19 00:46:39;;;;;;;18.03;16.30;;;-0.30;1.00;;;;;;4804349;29;20195;-50
2024/03/19 00:49:05;;;;;;;16.63;15.40;;;-0.30;1.00;;;;;;4797232;29;20467;-47
2024/03/19 00:51:31;;;;;;;19.02;16.25;;;-0.30;1.00;;;;;;4806443;29;21107;-51
2024/03/19 00:53:57;;;;;;;17.15;15.38;;;-0.30;1.00;;;;;;4809343;29;20202;-47
2024/03/19 00:56:23;;;;;;;17.63;15.87;;;-0.40;1.00;;;;;;4785857;29;20908;-51
2024/03/19 00:58:48;;;;;;;17.43;15.93;;;-0.40;1.00;;;;;;4796789;29;20269;-53
2024/03/19 01:01:14;;;;;;;17.13;15.67;;;-0.40;1.00;;;;;;4797018;29;20249;-50
2024/03/19 01:03:40;;;;;;;17.87;16.13;;;-0.50;1.00;;;;;;4780498;29;20293;-50
2024/03/19 01:06:05;;;;;;;17.07;15.63;;;-0.50;1.00;;;;;;4801678;29;20673;-38
2024/03/19 01:08:31;;;;;;;17.23;15.80;;;-0.50;1.00;;;;;;4812371;29;20216;-37
2024/03/19 01:11:01;;;;;;;17.27;15.63;;;-0.50;1.00;;;;;;4811068;29;20216;-37
2024/03/19 01:13:27;;;;;;;17.00;15.50;;;-0.50;1.00;;;;;;4804966;29;20238;-37
2024/03/19 01:15:53;;;;;;;17.93;16.10;;;-0.50;1.00;;;;;;4784154;29;20200;-39
2024/03/19 01:18:18;;;;;;;17.58;16.15;;;-0.60;1.00;;;;;;4801376;29;20456;-38
2024/03/19 01:20:44;;;;;;;17.53;15.73;;;-0.60;1.00;;;;;;4796578;29;20196;-37
2024/03/19 01:23:10;;;;;;;17.47;15.87;;;-0.60;1.00;;;;;;4804445;29;20195;-37
2024/03/19 01:25:36;;;;;;;17.43;15.80;;;-0.60;1.00;;;;;;4781686;29;20491;-37
2024/03/19 01:28:01;;;;;;;18.23;16.47;;;-0.60;1.00;;;;;;4797367;29;20199;-37
2024/03/19 01:30:27;;;;;;;18.17;16.30;;;-0.60;1.00;;;;;;4803874;29;20298;-37
2024/03/19 01:32:53;;;;;;;16.63;15.20;;;-0.60;1.00;;;;;;4809828;29;20203;-37
2024/03/19 01:35:19;;;;;;;15.73;14.40;;;-0.60;1.00;;;;;;4811593;29;20209;-36
2024/03/19 01:37:44;;;;;;;16.80;15.40;;;-0.70;1.00;;;;;;4797613;29;20195;-36
2024/03/19 01:40:10;;;;;;;18.07;16.27;;;-0.70;1.00;;;;;;4797894;29;20199;-37
2024/03/19 01:42:36;;;;;;;17.90;16.30;;;-0.70;1.00;;;;;;4802974;29;20984;-37
2024/03/19 01:45:12;;;;;;;17.53;15.93;;;-0.70;1.00;;;;;;4802249;29;20449;-37
2024/03/19 01:47:38;;;;;;;18.30;16.50;;;-0.70;1.00;;;;;;4784108;29;20197;-37
2024/03/19 01:50:06;;;;;;;17.63;16.00;;;-0.70;1.00;;;;;;4796901;29;20217;-37
2024/03/19 01:52:41;;;;;;;19.15;17.02;;;-0.70;1.00;;;;;;4801949;29;20275;-38
2024/03/19 01:55:08;;;;;;;16.92;15.52;;;-0.70;1.00;;;;;;4789729;29;20197;-37
2024/03/19 01:57:34;;;;;;;17.63;16.10;;;-0.70;1.00;;;;;;4811075;29;20198;-37
2024/03/19 02:00:00;;;;;;;16.98;15.57;;;-0.80;1.00;;;;;;4811269;29;20206;-37
2024/03/19 02:02:36;;;;;;;20.08;16.30;;;-0.80;1.00;;;;;;4804112;29;20201;-37
2024/03/19 02:05:05;;;;;;;17.30;15.60;;;-0.80;1.00;;;;;;4797403;29;20520;-36
2024/03/19 02:07:32;;;;;;;17.70;16.08;;;-0.80;1.00;;;;;;4795743;29;20250;-37
2024/03/19 02:09:57;;;;;;;17.42;15.93;;;-0.90;1.00;;;;;;4809023;29;20306;-37
2024/03/19 02:12:24;;;;;;;17.10;15.57;;;-0.90;1.00;;;;;;4801903;29;20188;-37
2024/03/19 02:14:50;;;;;;;18.08;16.27;;;-0.90;1.00;;;;;;4798879;29;20505;-38
2024/03/19 02:17:20;;;;;;;17.73;16.02;;;-0.90;1.00;;;;;;4802946;29;20196;-37
2024/03/19 02:19:46;;;;;;;15.93;14.63;;;-0.90;1.00;;;;;;4807227;29;20241;-38
2024/03/19 02:22:12;;;;;;;18.35;16.52;;;-0.90;1.00;;;;;;4803890;29;20196;-38
2024/03/19 02:24:39;;;;;;;17.70;16.00;;;-0.90;1.00;;;;;;4800097;29;20211;-37
2024/03/19 02:27:05;;;;;;;17.02;15.52;;;-0.90;1.00;;;;;;4801407;29;21014;-37
2024/03/19 02:29:32;;;;;;;17.70;15.80;;;-0.90;1.00;;;;;;4801717;29;20221;-38
2024/03/19 02:31:58;;;;;;;18.52;16.60;;;-0.90;1.00;;;;;;4806291;29;20918;-36
2024/03/19 02:34:23;;;;;;;18.07;16.20;;;-0.90;1.00;;;;;;4804089;29;20199;-48
2024/03/19 02:36:49;;;;;;;18.13;16.33;;;-0.90;1.00;;;;;;4798737;29;20440;-48
2024/03/19 02:39:14;;;;;;;18.57;16.57;;;-0.90;1.00;;;;;;4805867;29;20199;-49
2024/03/19 02:41:40;;;;;;;17.43;15.90;;;-0.90;1.00;;;;;;4801876;29;20196;-50
2024/03/19 02:44:06;;;;;;;18.27;16.60;;;-1.00;1.00;;;;;;4796279;29;20208;-47
2024/03/19 02:46:32;;;;;;;16.63;15.20;;;-1.00;1.00;;;;;;4781559;29;20195;-51
2024/03/19 02:48:58;;;;;;;16.70;15.30;;;-1.10;1.00;;;;;;4796950;29;20516;-50
2024/03/19 02:51:23;;;;;;;16.90;15.13;;;-1.00;1.00;;;;;;4799324;29;20282;-52
2024/03/19 02:53:49;;;;;;;18.00;16.40;;;-1.10;1.00;;;;;;4801237;29;20670;-52
2024/03/19 02:56:15;;;;;;;17.63;16.03;;;-1.10;1.00;;;;;;4809999;29;20246;-52
2024/03/19 02:58:41;;;;;;;17.70;15.97;;;-1.10;1.00;;;;;;4803422;29;20431;-47
2024/03/19 03:01:07;;;;;;;16.90;15.33;;;-1.20;1.00;;;;;;4808726;29;20603;-47
2024/03/19 03:03:33;;;;;;;17.45;15.73;;;-1.20;1.00;;;;;;4803934;29;20430;-49
2024/03/19 03:05:59;;;;;;;18.70;17.00;;;-1.20;1.00;;;;;;4784841;29;20757;-52
2024/03/19 03:08:26;;;;;;;18.92;16.90;;;-1.20;1.00;;;;;;4804324;29;20186;-51
2024/03/19 03:10:52;;;;;;;17.88;16.13;;;-1.20;1.00;;;;;;4796581;29;20279;-52
2024/03/19 03:13:17;;;;;;;18.37;16.60;;;-1.20;1.00;;;;;;4799469;29;20210;-52
2024/03/19 03:15:43;;;;;;;18.43;16.53;;;-1.20;1.00;;;;;;4794880;29;20439;-51
2024/03/19 03:18:10;;;;;;;18.73;16.83;;;-1.30;1.00;;;;;;4803175;29;20569;-53
2024/03/19 03:20:36;;;;;;;19.27;17.48;;;-1.30;1.00;;;;;;4810670;29;20194;-52
2024/03/19 03:23:02;;;;;;;19.52;17.02;;;-1.20;1.00;;;;;;4804526;29;20372;-52
2024/03/19 03:25:29;;;;;;;17.90;16.20;;;-1.20;16.80;;;;;;4804979;29;21022;-37
2024/03/19 03:27:55;;;;;;;18.15;15.65;;;-1.20;22.90;;;;;;4807304;29;20214;-37
2024/03/19 03:30:21;;;;;;;18.50;16.83;;;-1.20;25.90;;;;;;4804601;29;20627;-37
2024/03/19 03:32:47;;;;;;;20.58;16.02;;;-1.20;28.30;;;;;;4806707;29;20180;-37
2024/03/19 03:35:15;;;;;;;17.00;15.47;;;-1.20;26.50;;;;;;4811658;29;20199;-38
2024/03/19 03:37:41;;;;;;;18.00;16.38;;;-1.20;24.40;;;;;;4807572;29;20546;-38
2024/03/19 03:40:19;;;;;;;18.07;16.30;;;-1.20;24.60;;;;;;4809406;29;20227;-36
2024/03/19 03:42:45;;;;;;;18.77;16.92;;;-1.20;19.30;;;;;;4802760;29;20525;-37
2024/03/19 03:45:12;;;;;;;18.20;16.35;;;-1.20;14.30;;;;;;4813088;29;20199;-37
2024/03/19 03:47:38;;;;;;;19.27;17.42;;;-1.30;12.50;;;;;;4808568;29;21230;-36
2024/03/19 03:50:06;;;;;;;17.92;15.95;;;-1.30;13.90;;;;;;4807075;29;20215;-37
2024/03/19 03:52:32;;;;;;;17.60;15.75;;;-1.30;16.70;;;;;;4814224;29;20221;-36
2024/03/19 03:55:00;;;;;;;18.67;16.75;;;-1.30;19.20;;;;;;4806048;29;20188;-37
2024/03/19 03:57:26;;;;;;;19.55;17.55;;;-1.30;17.20;;;;;;4802950;29;20210;-37
2024/03/19 03:59:52;;;;;;;19.15;17.15;;;-1.30;16.00;;;;;;4808210;29;20334;-37
2024/03/19 04:02:17;;;;;;;18.17;16.30;;;-1.40;12.80;;;;;;4805010;29;20212;-37
2024/03/19 04:04:43;;;;;;;17.67;15.87;;;-1.40;11.10;;;;;;4809533;29;20657;-38
2024/03/19 04:07:08;;;;;;;19.00;17.10;;;-1.40;14.70;;;;;;4806604;29;20198;-36
2024/03/19 04:09:34;;;;;;;17.53;15.93;;;-1.40;14.80;;;;;;4806580;29;20225;-37
2024/03/19 04:12:00;;;;;;;20.73;17.00;;;-1.50;10.70;;;;;;4803083;29;20582;-51
2024/03/19 04:14:26;;;;;;;18.07;16.20;;;-1.50;11.10;;;;;;4809029;29;20272;-51
2024/03/19 04:16:51;;;;;;;19.25;17.45;;;-1.50;14.90;;;;;;4810236;29;20352;-50
2024/03/19 04:19:17;;;;;;;18.73;16.70;;;-1.50;13.10;;;;;;4805610;29;20723;-46
2024/03/19 04:21:43;;;;;;;18.10;16.20;;;-1.50;17.50;;;;;;4785347;29;20710;-51
2024/03/19 04:24:09;;;;;;;17.67;15.97;;;-1.50;19.40;;;;;;4800265;29;20230;-45
2024/03/19 04:26:36;;;;;;;19.17;16.87;;;-1.50;25.00;;;;;;4808877;29;20443;-53
2024/03/19 04:29:05;;;;;;;18.08;16.00;;;-1.50;26.10;;;;;;4810222;29;20214;-50
2024/03/19 04:31:33;;;;;;;18.80;16.88;;;-1.50;25.50;;;;;;4807217;29;20270;-47
2024/03/19 04:33:59;;;;;;;18.42;16.25;;;-1.60;25.60;;;;;;4803960;29;20276;-51
2024/03/19 04:36:24;;;;;;;19.03;16.80;;;-1.60;23.60;;;;;;4800825;29;20280;-52
2024/03/19 04:38:50;;;;;;;18.40;16.40;;;-1.60;25.70;;;;;;4803035;29;20277;-51
2024/03/19 04:41:15;;;;;;;17.57;15.77;;;-1.60;26.80;;;;;;4804112;29;20206;-47
2024/03/19 04:43:41;;;;;;;19.10;17.10;;;-1.60;28.90;;;;;;4800171;29;20190;-51
2024/03/19 04:46:06;;;;;;;17.13;15.33;;;-1.70;30.50;;;;;;4807967;29;20233;-51
2024/03/19 04:48:32;;;;;;;17.87;16.10;;;-1.70;29.40;;;;;;4802763;29;20872;-51
2024/03/19 04:50:58;;;;;;;18.10;16.25;;;-1.70;29.20;;;;;;4802630;29;20189;-53
2024/03/19 04:53:24;;;;;;;19.60;15.43;;;-1.70;29.40;;;;;;4806297;29;20190;-52
2024/03/19 04:55:50;;;;;;;18.63;16.63;;;-1.70;31.30;;;;;;4801887;29;21268;-48
2024/03/19 04:58:15;;;;;;;20.00;17.93;;;-1.80;33.70;;;;;;4787969;29;20187;-53
2024/03/19 05:00:41;;;;;;;18.27;16.37;;;-1.80;29.00;;;;;;4798767;29;20236;-53
2024/03/19 05:03:06;;;;;;;18.50;16.60;;;-1.80;29.70;;;;;;4803712;29;20216;-38
2024/03/19 05:05:32;;;;;;;17.93;16.13;;;-1.80;36.80;;;;;;4800130;29;20660;-38
2024/03/19 05:07:58;;;;;;;17.33;15.43;;;-1.80;48.20;;;;;;4803360;29;20275;-39
2024/03/19 05:10:23;;;;;;;19.07;17.37;;;-1.80;53.10;;;;;;4798387;29;20470;-38
2024/03/19 05:12:50;;;;;;;20.83;18.07;;;-1.80;54.70;;;;;;4809235;29;20225;-39
2024/03/19 05:15:16;;;;;;;19.33;17.33;;;-1.80;68.50;;;;;;4806049;29;20245;-38
2024/03/19 05:17:41;;;;;;;18.80;17.08;;;-1.80;74.90;;;;;;4803799;29;20186;-36
2024/03/19 05:20:08;;;;;;;17.80;15.90;;;-1.80;81.00;;;;;;4802836;29;20567;-37
2024/03/19 05:22:33;;;;;;;20.48;17.08;;;-1.80;90.60;;;;;;4803526;29;20221;-37
2024/03/19 05:24:59;;;;;;;23.00;18.00;;;-1.80;93.80;;;;;;4799270;29;20205;-37
2024/03/19 05:27:25;;;;;;;20.23;17.08;;;-1.80;94.60;;;;;;4803480;29;20194;-36
2024/03/19 05:29:50;;;;;;;19.37;17.30;;;-1.70;94.80;;;;;;4802032;29;20271;-37
2024/03/19 05:32:16;;;;;;;19.50;16.83;;;-1.80;88.20;;;;;;4806412;29;20287;-37
2024/03/19 05:34:42;;;;;;;21.93;16.77;;;-1.80;79.10;;;;;;4799437;29;20190;-38
2024/03/19 05:37:07;;;;;;;18.00;16.20;;;-1.70;81.70;;;;;;4799994;29;20198;-37
2024/03/19 05:39:33;;;;;;;17.83;16.03;;;-1.70;81.90;;;;;;4797344;29;20213;-37
2024/03/19 05:41:59;;;;;;;22.30;18.13;;;-1.70;89.90;;;;;;4807422;29;20194;-37
2024/03/19 05:44:24;;;;;;;17.83;15.87;;;-1.60;99.90;;;;;;4802711;29;20200;-36
2024/03/19 05:46:50;;;;;;;20.50;17.67;;;-1.60;99.90;;;;;;4812704;29;20229;-37
2024/03/19 05:49:16;;;;;;;17.00;15.40;;;-1.60;99.90;;;;;;4811442;29;20558;-37
2024/03/19 05:51:42;;;;;;;22.27;18.27;;;-1.50;99.90;;;;;;4810540;29;20270;-37
2024/03/19 05:54:08;;;;;;;19.65;17.63;;;-1.50;99.90;;;;;;4812029;29;20628;-48
2024/03/19 05:56:34;;;;;;;17.33;15.57;;;-1.50;99.90;;;;;;4800927;29;20182;-50
2024/03/19 05:58:59;;;;;;;19.38;17.27;;;-1.50;97.40;;;;;;4811248;29;20421;-44
2024/03/19 06:01:25;;;;;;;20.17;17.00;;;-1.50;91.80;;;;;;4800904;29;20204;-51
2024/03/19 06:03:50;;;;;;;21.17;19.00;;;-1.40;91.20;;;;;;4809014;29;20666;-47
2024/03/19 06:06:16;;;;;;;18.60;16.70;;;-1.40;90.90;;;;;;4803604;29;20202;-49
2024/03/19 06:08:42;;;;;;;20.80;17.30;;;-1.40;87.30;;;;;;4811491;29;20729;-44
2024/03/19 06:11:08;;;;;;;21.23;18.50;;;-1.30;89.30;;;;;;4804631;29;20604;-50
2024/03/19 06:13:34;;;;;;;22.50;17.37;;;-1.30;84.90;;;;;;4811509;29;20252;-47
2024/03/19 06:16:00;;;;;;;22.17;17.92;;;-1.20;83.30;;;;;;4806312;29;20199;-49
2024/03/19 06:18:26;;;;;;;19.58;17.35;;;-1.10;75.40;;;;;;4794923;29;20549;-50
2024/03/19 06:20:52;;;;;;;20.38;17.70;;;-1.10;68.10;;;;;;4808081;29;20186;-51
2024/03/19 06:23:18;;;;;;;20.40;16.43;;;-1.10;51.00;;;;;;4811337;29;20192;-50
2024/03/19 06:25:43;;;;;;;20.83;16.47;;;-1.00;46.40;;;;;;4809219;29;20286;-47
2024/03/19 06:28:10;;;;;;;24.90;18.07;;;-0.90;35.80;;;;;;4811057;29;20193;-50
2024/03/19 06:30:36;;;;;;;20.67;16.95;;;-0.90;99.90;;;;;;4806417;29;20218;-45
2024/03/19 06:33:01;;;;;;;21.00;17.70;;;-0.90;99.90;;;;;;4810991;29;20197;-46
2024/03/19 06:35:30;;;;;;;24.13;19.07;;;-0.90;99.90;;;;;;4809639;29;20261;-50
2024/03/19 06:37:56;;;;;;;23.77;19.35;;;-0.90;99.90;;;;;;4803872;29;20590;-46
2024/03/19 06:40:22;;;;;;;23.50;18.57;;;-0.90;99.90;;;;;;4811231;29;20516;-46
2024/03/19 06:42:47;;;;;;;24.03;18.77;;;-0.80;99.90;;;;;;4802273;29;20432;-45
2024/03/19 06:45:13;;;;;;;22.37;17.80;;;-0.80;99.90;;;;;;4793969;29;20221;-47
2024/03/19 06:47:39;;;;;;;24.37;19.00;;;-0.70;99.90;;;;;;4804106;29;20197;-50
2024/03/19 06:50:13;;;;;;;24.60;18.10;;;-0.70;99.90;;;;;;4804006;29;20215;-47
2024/03/19 06:52:39;;;;;;;20.00;17.90;;;-0.60;99.90;;;;;;4806102;29;20186;-47
2024/03/19 06:55:05;;;;;;;21.38;18.40;;;-0.50;99.90;;;;;;4811012;29;20374;-47
2024/03/19 06:57:32;;;;;;;19.95;17.85;;;-0.40;99.90;;;;;;4800854;29;20228;-47
2024/03/19 06:59:58;;;;;;;20.92;17.25;;;-0.30;99.90;;;;;;4808960;29;20632;-51
2024/03/19 07:02:24;;;;;;;22.80;17.35;;;-0.20;99.90;;;;;;4795846;29;20196;-46
2024/03/19 07:04:51;;;;;;;22.02;18.58;;;-0.10;99.90;;;;;;4808101;29;20950;-46
2024/03/19 07:07:17;;;;;;;22.48;17.98;;;0.00;99.90;;;;;;4806420;29;20200;-50
2024/03/19 07:09:45;;;;;;;21.77;17.80;;;0.00;99.90;;;;;;4789227;29;20224;-44
2024/03/19 07:12:11;;;;;;;21.25;18.65;;;0.10;99.90;;;;;;4802603;29;20182;-53
2024/03/19 07:14:36;;;;;;;20.15;16.48;;;0.10;99.90;;;;;;4806279;29;20590;-48
2024/03/19 07:17:03;;;;;;;21.93;19.60;;;0.20;99.90;;;;;;4804193;29;20258;-50
2024/03/19 07:19:29;;;;;;;22.45;19.30;;;0.30;99.90;;;;;;4809339;29;20188;-52
2024/03/19 07:21:54;;;;;;;22.03;19.30;;;0.30;99.90;;;;;;4791115;29;20672;-49
2024/03/19 07:24:20;;;;;;;19.83;17.43;;;0.50;99.90;;;;;;4800375;29;20694;-48
2024/03/19 07:26:46;;;;;;;20.93;17.53;;;0.60;99.90;;;;;;4800610;29;20226;-47
2024/03/19 07:29:11;;;;;;;20.33;18.23;;;0.70;99.90;;;;;;4803929;29;20224;-48
2024/03/19 07:31:40;;;;;;;20.63;18.43;;;0.80;99.90;;;;;;4810098;29;20190;-48
2024/03/19 07:34:06;;;;;;;27.25;20.15;;;0.90;99.90;;;;;;4811795;29;20185;-44
2024/03/19 07:36:32;;;;;;;21.25;17.63;;;1.00;99.90;;;;;;4794695;29;20526;-47
2024/03/19 07:38:58;;;;;;;20.37;18.03;;;1.10;99.90;;;;;;4809523;29;20201;-48
2024/03/19 07:41:23;;;;;;;21.97;19.67;;;1.20;99.90;;;;;;4812464;29;20200;-52
2024/03/19 07:43:49;;;;;;;21.00;17.17;;;1.40;99.90;;;;;;4810586;29;20212;-46
2024/03/19 07:46:16;;;;;;;19.90;17.90;;;1.50;99.90;;;;;;4811957;29;20657;-45
2024/03/19 07:48:42;;;;;;;18.27;16.35;;;1.60;99.90;;;;;;4811428;29;20201;-45
2024/03/19 07:51:08;;;;;;;19.95;17.63;;;1.80;99.90;;;;;;4812019;29;20193;-47
2024/03/19 07:53:34;;;;;;;21.38;19.25;;;1.90;99.90;;;;;;4801679;29;20261;-47
2024/03/19 07:56:00;;;;;;;20.27;18.17;;;2.10;99.90;;;;;;4809102;29;20190;-51
2024/03/19 07:58:25;;;;;;;19.87;17.93;;;2.20;99.90;;;;;;4803012;29;20194;-44
2024/03/19 08:00:51;;;;;;;21.80;19.53;;;2.40;99.90;;;;;;4811645;29;20212;-51
2024/03/19 08:03:18;;;;;;;20.15;18.23;;;2.60;99.90;;;;;;4801310;29;20225;-47
2024/03/19 08:05:45;;;;;;;19.80;17.77;;;2.80;99.90;;;;;;4801282;29;20186;-47
2024/03/19 08:08:12;;;;;;;19.70;17.60;;;2.90;99.90;;;;;;4803107;29;20204;-52
2024/03/19 08:10:37;;;;;;;19.73;17.73;;;3.10;99.90;;;;;;4811217;29;20278;-46
2024/03/19 08:13:03;;;;;;;19.97;17.97;;;3.20;99.90;;;;;;4807718;29;20189;-50
2024/03/19 08:15:32;;;;;;;20.07;17.50;;;3.50;99.90;;;;;;4803644;29;20286;-50
2024/03/19 08:17:58;;;;;;;19.00;17.20;;;3.60;99.90;;;;;;4808278;29;20186;-50
2024/03/19 08:20:23;;;;;;;20.70;18.50;;;3.90;99.90;;;;;;4813504;29;20185;-45
2024/03/19 08:22:49;;;;;;;19.27;17.47;;;4.20;99.90;;;;;;4808979;29;20245;-49
2024/03/19 08:25:15;;;;;;;19.30;17.30;;;4.50;99.90;;;;;;4812551;29;20581;-49
2024/03/19 08:27:41;;;;;;;19.87;17.87;;;4.80;99.90;;;;;;4807450;29;20198;-45
2024/03/19 08:30:08;;;;;;;18.23;16.50;;;5.10;99.70;;;;;;4806525;29;20293;-50
2024/03/19 08:32:34;;;;;;;19.85;17.92;;;5.50;99.00;;;;;;4811603;29;20269;-48
2024/03/19 08:35:00;;;;;;;20.30;18.50;;;5.90;98.60;;;;;;4807549;29;20198;-49
2024/03/19 08:37:26;;;;;;;18.90;17.10;;;6.50;96.70;;;;;;4801524;29;20443;-49
2024/03/19 08:39:53;;;;;;;19.93;18.03;;;7.00;94.90;;;;;;4805753;29;20614;-53
2024/03/19 08:42:19;;;;;;;19.50;17.80;;;7.70;93.70;;;;;;4808759;29;20428;-49
2024/03/19 08:44:44;;;;;;;19.17;17.50;;;8.50;90.80;;;;;;4806020;29;20479;-51
2024/03/19 08:47:10;;;;;;;19.63;17.90;;;9.10;84.60;;;;;;4812915;29;20430;-49
2024/03/19 08:49:36;;;;;;;18.57;16.87;;;9.70;80.10;;;;;;4807925;29;20697;-50
2024/03/19 08:52:01;;;;;;;19.60;18.00;;;10.30;75.60;;;;;;4812949;29;20186;-48
2024/03/19 08:54:29;;;;;;;19.50;17.80;;;10.90;70.90;;;;;;4808332;29;20356;-46
2024/03/19 08:56:54;;;;;;;19.23;17.67;;;11.40;68.10;;;;;;4801715;29;20661;-47
2024/03/19 08:59:20;;;;;;;19.40;17.83;;;11.90;65.00;;;;;;4803668;29;20459;-50
2024/03/19 09:01:46;;;;;;;18.47;17.07;;;12.50;61.30;;;;;;4797276;29;20730;-49
2024/03/19 09:04:11;;;;;;;20.00;18.30;;;13.00;57.50;;;;;;4802558;29;20198;-44
2024/03/19 09:06:37;;;;;;;18.80;17.13;;;13.40;54.80;;;;;;4800001;29;20226;-52
2024/03/19 09:09:03;;;;;;;18.43;16.93;;;13.60;53.20;;;;;;4805058;29;20221;-47
2024/03/19 09:11:31;;;;;;;19.37;17.87;;;14.00;50.10;;;;;;4811216;29;20272;-50
2024/03/19 09:13:58;;;;;;;18.77;17.27;;;14.30;47.40;;;;;;4805803;29;20231;-51
2024/03/19 09:16:24;;;;;;;18.77;17.30;;;14.40;99.90;;;;;;4811448;29;20621;-48
2024/03/19 09:18:49;;;;;;;18.20;16.90;;;14.50;99.90;;;;;;4808071;29;20444;-51
2024/03/19 09:21:15;;;;;;;19.70;18.30;;;14.90;1.00;;;;;;4811379;29;20194;-48
2024/03/19 09:23:41;;;;;;;18.70;17.33;;;15.00;99.90;;;;;;4808438;29;20189;-50
2024/03/19 09:26:06;;;;;;;18.93;17.33;;;15.40;26.30;;;;;;4807636;29;20213;-48
2024/03/19 09:28:32;;;;;;;17.90;16.60;;;15.60;39.70;;;;;;4810618;29;20277;-51
2024/03/19 09:30:59;;;;;;;18.87;17.37;;;15.50;41.20;;;;;;4810478;29;20213;-51
2024/03/19 09:33:25;;;;;;;18.47;16.97;;;15.40;39.20;;;;;;4810845;29;20420;-52
2024/03/19 09:35:50;;;;;;;16.93;15.77;;;15.80;39.30;;;;;;4812538;29;20427;-52
2024/03/19 09:38:18;;;;;;;19.50;18.00;;;16.10;39.80;;;;;;4806851;29;20442;-50
2024/03/19 09:40:51;;;;;;;17.90;16.60;;;16.40;38.50;;;;;;4808953;29;20190;-52
2024/03/19 09:43:23;;;;;;;17.70;16.40;;;16.90;38.10;;;;;;4801630;29;20482;-53
2024/03/19 09:45:49;;;;;;;18.43;17.00;;;17.20;36.70;;;;;;4800555;29;20434;-53
2024/03/19 09:48:15;;;;;;;18.27;16.97;;;17.30;35.40;;;;;;4807214;29;20826;-52
2024/03/19 09:50:43;;;;;;;17.03;15.73;;;17.60;33.50;;;;;;4803051;29;20562;-50
2024/03/19 09:53:16;;;;;;;17.97;16.67;;;17.80;33.90;;;;;;4811981;29;20470;-49
2024/03/19 09:55:42;;;;;;;16.33;15.23;;;17.70;34.60;;;;;;4804371;29;20442;-51
2024/03/19 09:58:09;;;;;;;17.83;16.63;;;18.20;32.90;;;;;;4811939;29;20538;-50
2024/03/19 10:00:34;;;;;;;16.80;15.60;;;18.30;31.40;;;;;;4804008;29;20616;-46
2024/03/19 10:03:00;;;;;;;15.50;14.33;;;18.60;31.60;;;;;;4801856;29;20518;-47
2024/03/19 10:05:26;;;;;;;14.53;13.50;;;19.00;28.60;;;;;;4806924;29;20192;-51
2024/03/19 10:07:53;;;;;;;15.63;14.43;;;19.00;25.80;;;;;;4799387;29;20186;-47
2024/03/19 10:10:19;;;;;;;14.17;13.27;;;19.30;28.20;;;;;;4806106;29;20565;-51
2024/03/19 10:12:45;;;;;;;15.00;14.07;;;19.60;26.80;;;;;;4811900;29;20518;-51
2024/03/19 10:15:20;;;;;;;13.77;12.87;;;20.00;25.50;;;;;;4801530;29;20793;-46
2024/03/19 10:17:51;;;;;;;14.47;13.57;;;20.40;25.20;;;;;;4808647;29;20442;-50
2024/03/19 10:20:17;;;;;;;15.00;14.00;;;20.50;23.30;;;;;;4801453;29;20444;-37
2024/03/19 10:22:46;;;;;;;14.53;13.63;;;21.00;24.00;;;;;;4809076;29;20423;-37
2024/03/19 10:25:14;;;;;;;13.40;12.60;;;21.10;23.10;;;;;;4796890;29;20936;-37
2024/03/19 10:27:47;;;;;;;16.27;15.27;;;21.00;22.70;;;;;;4806962;29;20450;-38
2024/03/19 10:30:18;;;;;;;15.33;14.33;;;21.20;24.30;;;;;;4798259;29;20932;-38
2024/03/19 10:32:45;;;;;;;16.93;15.63;;;21.30;23.20;;;;;;4811068;29;20987;-41
2024/03/19 10:35:19;;;;;;;15.80;14.80;;;21.50;22.80;;;;;;4805290;29;20473;-38
2024/03/19 10:37:49;;;;;;;14.10;13.30;;;22.00;23.90;;;;;;4810859;29;20952;-42
2024/03/19 10:40:16;;;;;;;17.40;16.30;;;22.00;22.90;;;;;;4805679;29;20435;-41
2024/03/19 10:42:43;;;;;;;17.00;15.80;;;21.60;20.70;;;;;;4804213;29;20432;-41
2024/03/19 10:45:19;;;;;;;17.17;16.00;;;21.70;22.70;;;;;;4804725;29;20937;-44
2024/03/19 10:47:46;;;;;;;16.17;15.07;;;21.90;23.80;;;;;;4807497;29;20470;-44
2024/03/19 10:50:14;;;;;;;16.70;15.60;;;21.70;21.20;;;;;;4809508;29;20496;-39
2024/03/19 10:53:03;;;;;;;15.37;14.37;;;21.70;21.80;;;;;;4794451;29;20435;-40
2024/03/19 10:55:32;;;;;;;15.93;14.93;;;21.50;21.30;;;;;;4809532;29;20950;-39
2024/03/19 10:58:08;;;;;;;14.57;13.67;;;21.50;20.60;;;;;;4794443;29;20473;-38
2024/03/19 11:00:40;;;;;;;14.53;13.53;;;21.50;21.50;;;;;;4797041;29;20411;-44
2024/03/19 11:03:06;;;;;;;14.50;13.57;;;21.80;22.60;;;;;;4797379;29;20873;-39
2024/03/19 11:05:33;;;;;;;14.60;13.70;;;21.90;22.00;;;;;;4800156;29;20783;-43
2024/03/19 11:07:59;;;;;;;15.83;14.77;;;22.20;21.30;;;;;;4806503;29;20211;-42
2024/03/19 11:10:29;;;;;;;16.77;15.77;;;22.30;20.10;;;;;;4807947;29;20476;-39
2024/03/19 11:13:06;;;;;;;15.20;14.20;;;22.40;20.40;;;;;;4801571;29;20955;-36
2024/03/19 11:15:35;;;;;;;15.43;14.53;;;22.70;20.40;;;;;;4807582;29;20461;-38
2024/03/19 11:18:19;;;;;;;16.37;15.30;;;22.10;18.60;;;;;;4809044;29;20958;-41
2024/03/19 11:20:54;;;;;;;15.10;14.20;;;21.70;20.40;;;;;;4805841;29;20428;-40
2024/03/19 11:23:25;;;;;;;15.40;14.47;;;22.10;19.50;;;;;;4810884;29;20479;-39
2024/03/19 11:25:55;;;;;;;13.53;12.63;;;21.60;18.00;;;;;;4791259;29;20447;-41
2024/03/19 11:28:29;;;;;;;14.97;14.00;;;22.10;18.60;;;;;;4810863;29;20492;-52
2024/03/19 11:30:56;;;;;;;15.73;14.73;;;22.40;18.70;;;;;;4806671;29;20950;-51
2024/03/19 11:33:23;;;;;;;14.90;13.90;;;22.70;19.60;;;;;;4810626;29;20763;-47
2024/03/19 11:35:49;;;;;;;14.37;13.57;;;22.90;19.10;;;;;;4810572;29;20430;-45
2024/03/19 11:38:16;;;;;;;16.40;15.40;;;22.40;16.20;;;;;;4810523;29;20425;-46
2024/03/19 11:40:42;;;;;;;14.67;13.70;;;22.90;17.40;;;;;;4809054;29;20858;-49
2024/03/19 11:43:12;;;;;;;15.37;14.37;;;22.20;17.40;;;;;;4806592;29;20499;-51
2024/03/19 11:45:38;;;;;;;15.63;14.63;;;22.90;16.90;;;;;;4809585;29;20422;-51
2024/03/19 11:48:04;;;;;;;14.53;13.50;;;22.70;16.50;;;;;;4804049;29;20495;-46
2024/03/19 11:50:29;;;;;;;14.97;13.97;;;23.30;17.20;;;;;;4804875;29;20231;-50
2024/03/19 11:52:58;;;;;;;13.80;13.10;;;23.30;16.70;;;;;;4797680;29;21755;-48
2024/03/19 11:55:24;;;;;;;14.20;13.40;;;23.30;15.30;;;;;;4813726;29;20189;-48
2024/03/19 11:57:50;;;;;;;14.03;13.20;;;23.50;15.10;;;;;;4797214;29;20443;-44
2024/03/19 12:00:17;;;;;;;15.97;14.97;;;23.70;15.10;;;;;;4799593;29;20470;-50
2024/03/19 12:02:43;;;;;;;14.50;13.30;;;24.10;16.30;;;;;;4800111;29;20190;-45
2024/03/19 12:05:15;;;;;;;14.90;14.10;;;24.10;16.30;;;;;;4813953;29;20781;-44
2024/03/19 12:07:51;;;;;;;14.97;13.97;;;24.50;15.60;;;;;;4811415;29;21077;-47
2024/03/19 12:10:25;;;;;;;14.73;13.83;;;23.30;12.90;;;;;;4813794;29;20522;-49
2024/03/19 12:12:52;;;;;;;15.03;14.03;;;21.90;14.70;;;;;;4812933;29;20414;-50
2024/03/19 12:15:20;;;;;;;14.23;13.43;;;22.10;16.70;;;;;;4802102;29;21331;-50
2024/03/19 12:17:49;;;;;;;13.57;12.77;;;22.40;15.10;;;;;;4800419;29;20427;-47
2024/03/19 12:20:16;;;;;;;13.90;13.10;;;23.10;14.50;;;;;;4813645;29;20423;-45
2024/03/19 12:22:49;;;;;;;13.90;13.10;;;23.50;14.60;;;;;;4804399;29;20854;-52
2024/03/19 12:25:17;;;;;;;15.40;14.40;;;24.30;14.30;;;;;;4813401;29;20926;-49
2024/03/19 12:27:43;;;;;;;15.03;14.03;;;24.30;13.40;;;;;;4802856;29;20460;-49